Lakefield, Minnesota
Current Conditions -  °F | °C
As of 10:33 PM on Saturday 22 Nov 2014 (Local Time) from KMJQ Reporting Station
Overcast Overcast  
Wind Chill: 39°   Ceiling: 1100
Heat Index: 46°   Visibility: 10mi
Dew Point: 45°   Wind: 17mph
Humidity: 93%   Direction: 200°SSW
Pressure: 29.5"   Gusts: 23mph
Location:  43.68°N, 95.17°W
Report Text: KMJQ 230433Z AUTO 20015G20KT 10SM OVC011 08/07 A2950 RMK AO2
Loading
Personal Weather Stations






























Interactive Weather Map New forecast layout! Learn more

10-Day Weather Forecast

Advertisements
Track Severe Weather on mobile